createdAt,value
2018-04-07T00:00:31.411Z,60.00
2018-04-07T00:01:34.750Z,60.40
2018-04-07T00:02:37.268Z,60.30
2018-04-07T00:03:39.777Z,60.20
2018-04-07T00:04:42.289Z,60.00
2018-04-07T00:05:45.564Z,60.90
2018-04-07T00:06:48.884Z,60.80
2018-04-07T00:07:51.403Z,60.80
2018-04-07T00:08:53.920Z,61.10
2018-04-07T00:09:56.442Z,61.30
2018-04-07T00:10:59.761Z,62.20
2018-04-07T00:12:02.294Z,61.90
2018-04-07T00:13:05.625Z,62.00
2018-04-07T00:14:08.154Z,62.00
2018-04-07T00:15:11.434Z,62.70
2018-04-07T00:16:14.714Z,62.60
2018-04-07T00:17:18.001Z,62.70
2018-04-07T00:18:21.325Z,62.90
2018-04-07T00:19:23.842Z,62.90
2018-04-07T00:20:26.368Z,63.00
2018-04-07T00:21:28.884Z,63.60
2018-04-07T00:22:32.165Z,63.40
2018-04-07T00:23:35.477Z,63.50
2018-04-07T00:24:38.021Z,63.60
2018-04-07T00:25:41.321Z,64.00
2018-04-07T00:26:43.886Z,64.00
2018-04-07T00:27:46.400Z,64.30
2018-04-07T00:28:48.916Z,64.10
2018-04-07T00:29:51.434Z,64.10
2018-04-07T00:30:53.976Z,64.60
2018-04-07T00:31:56.498Z,64.90
2018-04-07T00:32:59.789Z,64.90
2018-04-07T00:34:03.082Z,65.40
2018-04-07T00:35:05.596Z,65.40
2018-04-07T00:36:08.152Z,65.70
2018-04-07T00:37:10.664Z,65.90
2018-04-07T00:38:13.941Z,66.70
2018-04-07T00:39:17.217Z,66.80
2018-04-07T00:40:19.730Z,66.80
2018-04-07T00:41:22.277Z,66.90
2018-04-07T00:42:24.825Z,67.00
2018-04-07T00:43:28.120Z,66.90
2018-04-07T00:44:31.400Z,67.00
2018-04-07T00:45:34.713Z,67.10
2018-04-07T00:47:46.230Z,68.10
2018-04-07T00:48:48.779Z,67.70
2018-04-07T00:49:51.297Z,68.10
2018-04-07T00:50:54.617Z,68.30
2018-04-07T00:51:57.133Z,68.30
2018-04-07T00:52:59.653Z,69.50
2018-04-07T00:54:02.174Z,70.00
2018-04-07T00:55:05.458Z,69.90
2018-04-07T00:56:08.785Z,70.50
2018-04-07T00:57:11.306Z,70.50
2018-04-07T00:58:14.587Z,70.90
2018-04-07T00:59:17.877Z,70.30
2018-04-07T01:00:21.156Z,70.40
2018-04-07T01:01:24.465Z,70.60
2018-04-07T01:02:26.984Z,70.60
2018-04-07T01:03:29.497Z,70.70
2018-04-07T01:04:32.035Z,70.50
2018-04-07T01:05:35.320Z,70.80
2018-04-07T01:06:38.658Z,71.40
2018-04-07T01:07:41.217Z,71.40
2018-04-07T01:08:43.741Z,71.60
2018-04-07T01:09:47.029Z,72.20
2018-04-07T01:10:50.339Z,72.20
2018-04-07T01:11:52.902Z,72.10
2018-04-07T01:12:55.436Z,72.90
2018-04-07T01:13:58.737Z,73.50
2018-04-07T01:15:02.024Z,73.80
2018-04-07T01:16:05.301Z,73.40
2018-04-07T01:17:08.632Z,73.70
2018-04-07T01:18:11.146Z,73.70
2018-04-07T01:19:14.461Z,74.10
2018-04-07T01:20:16.986Z,74.10
2018-04-07T01:21:19.512Z,74.40
2018-04-07T01:22:22.078Z,74.20
2018-04-07T01:23:24.597Z,74.20
2018-04-07T01:24:27.884Z,74.90
2018-04-07T01:25:31.172Z,75.30
2018-04-07T01:26:34.454Z,75.00
2018-04-07T01:27:37.773Z,75.20
2018-04-07T01:28:40.323Z,75.20
2018-04-07T01:29:42.837Z,75.50
2018-04-07T01:30:45.356Z,75.70
2018-04-07T01:31:47.866Z,75.80
2018-04-07T01:32:50.426Z,75.70
2018-04-07T01:33:52.989Z,75.70
2018-04-07T01:34:55.509Z,75.70
2018-04-07T01:35:58.026Z,76.10
2018-04-07T01:37:00.546Z,75.80
2018-04-07T01:38:03.097Z,75.80
2018-04-07T01:39:06.418Z,75.70
2018-04-07T01:40:08.925Z,75.70
2018-04-07T01:41:11.446Z,76.10
2018-04-07T01:42:13.968Z,76.80
2018-04-07T01:43:17.253Z,76.40
2018-04-07T01:44:20.573Z,76.40
2018-04-07T01:45:23.090Z,76.30
2018-04-07T01:46:25.609Z,76.40
2018-04-07T01:47:28.129Z,76.60
2018-04-07T01:48:31.414Z,76.40
2018-04-07T01:49:34.733Z,76.70
2018-04-07T01:50:37.257Z,76.70
2018-04-07T01:51:39.780Z,77.00
2018-04-07T01:52:42.301Z,77.50
2018-04-07T01:53:45.609Z,77.20
2018-04-07T01:54:48.126Z,77.20
2018-04-07T01:55:50.685Z,77.30
2018-04-07T01:56:53.210Z,76.80
2018-04-07T01:57:55.723Z,77.10
2018-04-07T01:58:58.253Z,77.20
2018-04-07T02:00:00.808Z,77.00
2018-04-07T02:01:03.329Z,76.70
2018-04-07T02:02:05.855Z,76.70
2018-04-07T02:03:08.381Z,76.90
2018-04-07T02:04:11.660Z,77.00
2018-04-07T02:05:14.973Z,77.00
2018-04-07T02:06:17.492Z,76.90
2018-04-07T02:07:20.009Z,76.90
2018-04-07T02:08:22.520Z,77.30
2018-04-07T02:09:25.029Z,77.60
2018-04-07T02:10:27.599Z,77.90
2018-04-07T02:11:30.133Z,78.00
2018-04-07T02:12:33.417Z,78.00
2018-04-07T02:13:35.937Z,77.60
2018-04-07T02:14:38.459Z,77.40
2018-04-07T02:15:41.773Z,77.80
2018-04-07T02:16:44.297Z,77.70
2018-04-07T02:17:46.855Z,78.40
2018-04-07T02:18:49.373Z,78.80
2018-04-07T02:19:51.881Z,78.00
2018-04-07T02:20:54.392Z,78.30
2018-04-07T02:21:56.914Z,78.10
2018-04-07T02:22:59.452Z,77.50
2018-04-07T02:24:01.974Z,77.80
2018-04-07T02:25:05.255Z,78.00
2018-04-07T02:26:08.576Z,78.20
2018-04-07T02:27:11.123Z,78.10
2018-04-07T02:28:13.633Z,78.60
2018-04-07T02:29:16.185Z,78.40
2018-04-07T02:30:18.697Z,78.20
2018-04-07T02:31:21.980Z,78.20
2018-04-07T02:32:25.276Z,78.40
2018-04-07T02:33:27.833Z,78.40
2018-04-07T02:34:31.122Z,78.30
2018-04-07T02:35:34.413Z,78.60
2018-04-07T02:36:37.684Z,78.50
2018-04-07T02:37:40.997Z,78.80
2018-04-07T02:38:43.559Z,78.80
2018-04-07T02:39:46.097Z,80.40
2018-04-07T02:40:49.440Z,78.60
2018-04-07T02:41:51.956Z,78.60
2018-04-07T02:42:55.237Z,78.80
2018-04-07T02:43:58.522Z,78.60
2018-04-07T02:45:01.822Z,79.20
2018-04-07T02:46:04.375Z,79.20
2018-04-07T02:47:06.927Z,79.30
2018-04-07T02:48:09.458Z,79.20
2018-04-07T02:49:11.975Z,79.10
2018-04-07T02:50:15.303Z,79.70
2018-04-07T02:51:17.814Z,79.70
2018-04-07T02:52:21.106Z,78.70
2018-04-07T02:53:24.397Z,79.10
2018-04-07T02:54:27.689Z,79.00
2018-04-07T02:55:30.242Z,79.10
2018-04-07T02:56:33.569Z,79.00
2018-04-07T02:57:36.077Z,79.00
2018-04-07T02:58:38.597Z,79.10
2018-04-07T02:59:41.114Z,78.90
2018-04-07T03:00:44.407Z,78.50
2018-04-07T03:01:47.741Z,78.60
2018-04-07T03:02:50.260Z,78.60
2018-04-07T03:03:53.545Z,78.60
2018-04-07T03:04:56.069Z,78.50
2018-04-07T03:05:58.590Z,78.50
2018-04-07T03:07:01.145Z,78.30
2018-04-07T03:08:04.439Z,78.70
2018-04-07T03:09:07.086Z,78.00
2018-04-07T03:10:10.357Z,78.20
2018-04-07T03:11:13.645Z,78.20
2018-04-07T03:12:16.202Z,78.10
2018-04-07T03:13:18.722Z,78.60
2018-04-07T03:14:21.238Z,77.70
2018-04-07T03:15:23.764Z,77.40
2018-04-07T03:16:26.273Z,77.20
2018-04-07T03:17:28.821Z,77.10
2018-04-07T03:18:31.337Z,77.10
2018-04-07T03:19:33.891Z,77.30
2018-04-07T03:20:37.171Z,76.80
2018-04-07T03:21:40.444Z,77.40
2018-04-07T03:22:43.724Z,76.60
2018-04-07T03:23:46.234Z,76.60
2018-04-07T03:24:48.784Z,76.80
2018-04-07T03:25:51.349Z,76.00
2018-04-07T03:26:53.857Z,76.10
2018-04-07T03:27:56.373Z,76.20
2018-04-07T03:28:59.651Z,77.00
2018-04-07T03:30:02.946Z,76.60
2018-04-07T03:31:05.518Z,76.60
2018-04-07T03:32:08.066Z,76.50
2018-04-07T03:33:11.350Z,76.70
2018-04-07T03:34:14.638Z,76.70
2018-04-07T03:35:17.917Z,77.10
2018-04-07T03:36:21.192Z,77.50
2018-04-07T03:37:24.525Z,77.30
2018-04-07T03:38:27.048Z,77.30
2018-04-07T03:39:30.324Z,77.30
2018-04-07T03:40:32.845Z,77.30
2018-04-07T03:41:35.360Z,77.20
2018-04-07T03:42:38.666Z,77.60
2018-04-07T03:43:41.177Z,77.60
2018-04-07T03:44:43.716Z,77.70
2018-04-07T03:45:46.235Z,77.40
2018-04-07T03:46:49.521Z,78.10
2018-04-07T03:47:52.837Z,78.50
2018-04-07T03:48:55.354Z,78.50
2018-04-07T03:49:57.886Z,78.00
2018-04-07T03:51:00.413Z,77.50
2018-04-07T03:52:03.697Z,77.20
2018-04-07T03:53:07.024Z,77.50
2018-04-07T03:54:09.529Z,77.50
2018-04-07T03:55:12.049Z,77.70
2018-04-07T03:56:14.569Z,78.10
2018-04-07T03:57:17.845Z,77.60
2018-04-07T03:58:20.450Z,77.50
2018-04-07T03:59:22.969Z,77.60
2018-04-07T04:00:25.488Z,78.50
2018-04-07T04:01:28.014Z,78.60
2018-04-07T04:02:31.341Z,79.80
2018-04-07T04:03:33.864Z,79.30
2018-04-07T04:04:36.384Z,79.00
2018-04-07T04:05:38.908Z,79.20
2018-04-07T04:06:42.190Z,79.70
2018-04-07T04:07:45.501Z,79.60
2018-04-07T04:08:48.015Z,79.60
2018-04-07T04:09:50.524Z,80.60
2018-04-07T04:10:53.045Z,79.90
2018-04-07T04:11:55.557Z,79.70
2018-04-07T04:12:58.112Z,80.00
2018-04-07T04:14:01.399Z,80.20
2018-04-07T04:15:03.961Z,80.20
2018-04-07T04:16:06.448Z,80.30
2018-04-07T04:17:08.959Z,80.80
2018-04-07T04:18:11.507Z,80.90
2018-04-07T04:19:14.025Z,81.20
2018-04-07T04:20:17.314Z,81.20
2018-04-07T04:21:19.828Z,81.20
2018-04-07T04:22:22.355Z,81.10
2018-04-07T04:23:24.928Z,81.00
2018-04-07T04:24:27.440Z,81.80
2018-04-07T04:25:30.070Z,81.70
2018-04-07T04:26:32.580Z,81.50
2018-04-07T04:27:35.098Z,81.20
2018-04-07T04:28:37.639Z,81.00
2018-04-07T04:29:40.153Z,81.30
2018-04-07T04:30:42.707Z,81.20
2018-04-07T04:31:45.213Z,81.40
2018-04-07T04:32:47.719Z,81.40
2018-04-07T04:33:50.278Z,81.20
2018-04-07T04:34:52.804Z,80.60
2018-04-07T04:35:55.364Z,80.60
2018-04-07T04:36:57.898Z,80.70
2018-04-07T04:38:00.404Z,80.70
2018-04-07T04:39:02.921Z,80.60
2018-04-07T04:40:05.446Z,81.20
2018-04-07T04:41:08.770Z,81.20
2018-04-07T04:42:11.287Z,81.20
2018-04-07T04:43:13.809Z,81.10
2018-04-07T04:44:16.325Z,81.40
2018-04-07T04:45:18.841Z,80.90
2018-04-07T04:46:21.389Z,81.00
2018-04-07T04:47:23.912Z,80.80
2018-04-07T04:48:26.467Z,80.90
2018-04-07T04:49:28.985Z,80.90
2018-04-07T04:50:31.494Z,81.20
2018-04-07T04:51:34.017Z,81.70
2018-04-07T04:52:36.528Z,81.80
2018-04-07T04:53:39.097Z,81.60
2018-04-07T04:54:41.618Z,81.90
2018-04-07T04:55:44.140Z,82.20
2018-04-07T04:56:46.649Z,82.00
2018-04-07T04:57:49.169Z,82.30
2018-04-07T04:58:51.748Z,82.40
2018-04-07T04:59:54.292Z,82.50
2018-04-07T05:00:56.810Z,83.20
2018-04-07T05:01:59.328Z,83.00
2018-04-07T05:03:01.843Z,82.70
2018-04-07T05:04:04.433Z,82.80
2018-04-07T05:05:06.957Z,82.70
2018-04-07T05:06:10.241Z,82.70
2018-04-07T05:07:13.531Z,83.20
2018-04-07T05:08:16.817Z,82.90
2018-04-07T05:09:20.125Z,83.20
2018-04-07T05:10:22.641Z,83.30
2018-04-07T05:11:25.201Z,83.40
2018-04-07T05:12:27.750Z,83.20
2018-04-07T05:13:30.249Z,83.00
2018-04-07T05:14:33.526Z,83.00
2018-04-07T05:15:36.045Z,83.00
2018-04-07T05:16:38.592Z,83.10
2018-04-07T05:17:41.112Z,83.10
2018-04-07T05:18:43.630Z,83.20
2018-04-07T05:19:46.151Z,83.10
2018-04-07T05:20:48.683Z,83.40
2018-04-07T05:21:51.235Z,83.50
2018-04-07T05:22:53.757Z,82.90
2018-04-07T05:23:57.082Z,82.40
2018-04-07T05:24:59.614Z,82.40
2018-04-07T05:26:02.905Z,83.10
2018-04-07T05:27:06.185Z,83.90
2018-04-07T05:28:09.466Z,83.70
2018-04-07T05:29:12.780Z,83.50
2018-04-07T05:30:15.292Z,83.50
2018-04-07T05:31:17.812Z,83.20
2018-04-07T05:32:20.327Z,82.90
2018-04-07T05:33:22.844Z,82.80
2018-04-07T05:34:25.412Z,82.90
2018-04-07T05:35:27.936Z,82.40
2018-04-07T05:36:30.449Z,82.20
2018-04-07T05:37:32.956Z,82.50
2018-04-07T05:38:35.478Z,82.90
2018-04-07T05:39:38.028Z,83.50
2018-04-07T05:40:40.546Z,83.40
2018-04-07T05:41:43.063Z,83.00
2018-04-07T05:42:45.589Z,83.30
2018-04-07T05:43:48.147Z,83.20
2018-04-07T05:44:50.670Z,83.80
2018-04-07T05:45:53.278Z,84.40
2018-04-07T05:46:55.836Z,84.10
2018-04-07T05:47:58.374Z,84.00
2018-04-07T05:49:00.917Z,83.70
2018-04-07T05:50:04.230Z,83.40
2018-04-07T05:51:06.736Z,83.40
2018-04-07T05:52:09.258Z,83.40
2018-04-07T05:53:11.765Z,82.80
2018-04-07T05:54:14.279Z,82.70
2018-04-07T05:55:16.833Z,82.40
2018-04-07T05:56:19.368Z,82.50
2018-04-07T05:57:21.898Z,82.40
2018-04-07T05:58:24.409Z,83.00
2018-04-07T05:59:27.690Z,82.10
2018-04-07T06:00:30.242Z,82.00
2018-04-07T06:01:32.762Z,82.70
2018-04-07T06:02:35.282Z,82.50
2018-04-07T06:03:37.797Z,82.30
2018-04-07T06:04:40.342Z,82.30
2018-04-07T06:05:43.666Z,82.20
2018-04-07T06:06:46.180Z,82.20
2018-04-07T06:07:49.471Z,81.40
2018-04-07T06:08:52.757Z,81.50
2018-04-07T06:09:56.047Z,80.30
2018-04-07T06:10:58.598Z,80.30
2018-04-07T06:12:01.884Z,78.90
2018-04-07T06:13:05.205Z,79.00
2018-04-07T06:14:07.719Z,79.00
2018-04-07T06:15:10.237Z,80.30
2018-04-07T06:16:12.748Z,81.00
2018-04-07T06:17:15.257Z,80.60
2018-04-07T06:18:17.822Z,79.90
2018-04-07T06:19:20.341Z,79.40
2018-04-07T06:20:22.854Z,79.70
2018-04-07T06:21:25.378Z,79.80
2018-04-07T06:22:27.938Z,79.80
2018-04-07T06:23:30.457Z,79.00
2018-04-07T06:24:33.015Z,79.10
2018-04-07T06:25:35.536Z,79.00
2018-04-07T06:26:38.062Z,79.60
2018-04-07T06:27:40.604Z,79.50
2018-04-07T06:28:43.189Z,79.10
2018-04-07T06:29:45.707Z,78.70
2018-04-07T06:30:48.220Z,78.50
2018-04-07T06:31:50.744Z,78.10
2018-04-07T06:32:53.277Z,78.10
2018-04-07T06:33:55.817Z,77.80
2018-04-07T06:34:58.346Z,79.60
2018-04-07T06:36:01.634Z,81.40
2018-04-07T06:37:04.913Z,83.10
2018-04-07T06:38:08.188Z,83.80
2018-04-07T06:39:10.762Z,83.80
2018-04-07T06:40:14.036Z,85.00
2018-04-07T06:41:16.562Z,84.30
2018-04-07T06:42:19.080Z,84.90
2018-04-07T06:43:22.360Z,84.90
2018-04-07T06:44:24.900Z,84.90
2018-04-07T06:45:27.417Z,84.80
2018-04-07T06:46:29.944Z,83.80
2018-04-07T06:47:32.459Z,83.70
2018-04-07T06:48:34.982Z,83.80
2018-04-07T06:49:37.548Z,83.50
2018-04-07T06:50:40.102Z,83.10
2018-04-07T06:51:42.625Z,82.90
2018-04-07T06:52:45.159Z,82.30
2018-04-07T06:53:48.438Z,81.60
2018-04-07T06:54:51.755Z,81.40
2018-04-07T06:55:54.274Z,81.90
2018-04-07T06:56:56.823Z,80.80
2018-04-07T06:57:59.347Z,80.70
2018-04-07T06:59:01.904Z,80.00
2018-04-07T07:00:05.190Z,79.30
2018-04-07T07:01:07.757Z,79.30
2018-04-07T07:02:11.044Z,79.20
2018-04-07T07:03:13.562Z,79.20
2018-04-07T07:04:16.117Z,77.70
2018-04-07T07:05:18.682Z,77.80
2018-04-07T07:06:21.970Z,77.50
2018-04-07T07:07:24.494Z,77.60
2018-04-07T07:08:27.008Z,76.90
2018-04-07T07:09:29.557Z,76.40
2018-04-07T07:10:32.078Z,76.50
2018-04-07T07:11:35.361Z,75.60
2018-04-07T07:12:38.676Z,75.30
2018-04-07T07:13:41.231Z,75.30
2018-04-07T07:14:43.750Z,75.00
2018-04-07T07:15:46.343Z,73.30
2018-04-07T07:16:49.639Z,70.70
2018-04-07T07:17:52.168Z,70.60
2018-04-07T07:18:54.692Z,69.00
2018-04-07T07:19:57.226Z,68.70
2018-04-07T07:21:00.553Z,67.30
2018-04-07T07:22:03.126Z,67.30
2018-04-07T07:23:05.648Z,64.30
2018-04-07T07:24:08.931Z,62.80
2018-04-07T07:25:12.226Z,61.40
2018-04-07T07:26:14.755Z,61.40
2018-04-07T07:27:17.309Z,61.70
2018-04-07T07:28:19.846Z,61.20
2018-04-07T07:29:22.363Z,60.70
2018-04-07T07:30:24.924Z,59.80
2018-04-07T07:31:27.539Z,59.50
2018-04-07T07:32:30.058Z,58.10
2018-04-07T07:33:32.564Z,58.40
2018-04-07T07:34:35.076Z,57.70
2018-04-07T07:35:37.663Z,58.60
2018-04-07T07:36:40.952Z,57.60
2018-04-07T07:37:44.250Z,57.30
2018-04-07T07:38:47.542Z,57.30
2018-04-07T07:39:50.066Z,57.30
2018-04-07T07:40:52.631Z,56.20
2018-04-07T07:41:55.204Z,55.30
2018-04-07T07:42:57.697Z,55.00
2018-04-07T07:44:00.990Z,55.50
2018-04-07T07:45:03.512Z,55.50
2018-04-07T07:46:06.280Z,56.60
2018-04-07T07:48:18.650Z,54.20
2018-04-07T07:49:21.162Z,54.20
2018-04-07T07:50:23.690Z,54.00
2018-04-07T07:51:26.254Z,53.80
2018-04-07T07:52:28.793Z,54.60
2018-04-07T07:53:31.328Z,53.40
2018-04-07T07:54:33.857Z,52.90
2018-04-07T07:55:36.397Z,53.80
2018-04-07T07:56:38.952Z,53.80
2018-04-07T07:57:42.246Z,53.50
2018-04-07T07:58:44.769Z,53.50
2018-04-07T07:59:47.272Z,54.10
2018-04-07T08:00:49.829Z,53.90
2018-04-07T08:01:53.309Z,53.70
2018-04-07T08:02:56.604Z,52.60
2018-04-07T08:03:59.889Z,52.80
2018-04-07T08:05:02.430Z,52.90
2018-04-07T08:06:04.997Z,52.60
2018-04-07T08:07:07.512Z,53.50
2018-04-07T08:08:10.043Z,53.50
2018-04-07T08:09:13.410Z,51.80
2018-04-07T08:10:15.972Z,51.80
2018-04-07T08:11:18.536Z,52.40
2018-04-07T08:12:21.066Z,53.00
2018-04-07T08:13:23.589Z,53.20
2018-04-07T08:14:26.877Z,52.30
2018-04-07T08:15:30.161Z,51.40
2018-04-07T08:16:33.500Z,51.20
2018-04-07T08:17:36.021Z,51.00
2018-04-07T08:18:39.311Z,51.30
2018-04-07T08:19:41.838Z,51.30
2018-04-07T08:20:44.389Z,53.00
2018-04-07T08:21:46.927Z,52.50
2018-04-07T08:22:49.453Z,52.50
2018-04-07T08:23:51.978Z,53.20
2018-04-07T08:24:54.516Z,51.60
2018-04-07T08:25:57.034Z,51.30
2018-04-07T08:26:59.608Z,50.70
2018-04-07T08:28:02.130Z,51.70
2018-04-07T08:29:04.675Z,51.50
2018-04-07T08:30:07.215Z,52.50
2018-04-07T08:31:09.799Z,51.40
2018-04-07T08:32:12.401Z,51.40
2018-04-07T08:33:15.647Z,51.10
2018-04-07T08:34:18.935Z,50.60
2018-04-07T08:35:21.465Z,50.60
2018-04-07T08:36:23.987Z,51.00
2018-04-07T08:37:26.561Z,50.80
2018-04-07T08:38:29.090Z,50.20
2018-04-07T08:39:32.467Z,50.50
2018-04-07T08:40:34.946Z,50.80
2018-04-07T08:41:38.229Z,51.90
2018-04-07T08:42:40.794Z,51.90
2018-04-07T08:43:43.385Z,50.70
2018-04-07T08:44:45.911Z,50.10
2018-04-07T08:45:48.421Z,50.30
2018-04-07T08:46:50.940Z,50.30
2018-04-07T08:47:54.238Z,48.30
2018-04-07T08:48:57.600Z,48.70
2018-04-07T08:50:00.097Z,48.70
2018-04-07T08:51:03.388Z,47.20
2018-04-07T08:52:05.909Z,47.10
2018-04-07T08:53:08.454Z,47.20
2018-04-07T08:54:11.025Z,48.20
2018-04-07T08:55:13.544Z,47.50
2018-04-07T08:56:16.825Z,46.30
2018-04-07T08:57:20.112Z,45.90
2018-04-07T08:58:23.442Z,45.80
2018-04-07T08:59:25.958Z,45.80
2018-04-07T09:00:29.256Z,45.60
2018-04-07T09:01:31.778Z,45.50
2018-04-07T09:02:34.338Z,45.40
2018-04-07T09:03:36.862Z,45.60
2018-04-07T09:04:39.417Z,45.60
2018-04-07T09:05:41.968Z,45.00
2018-04-07T09:06:45.261Z,44.20
2018-04-07T09:07:48.547Z,43.30
2018-04-07T09:08:51.081Z,43.30
2018-04-07T09:11:02.498Z,42.60
2018-04-07T09:12:05.021Z,42.40
2018-04-07T09:13:07.553Z,42.20
2018-04-07T09:14:10.069Z,42.60
2018-04-07T09:15:12.600Z,41.90
2018-04-07T09:16:15.165Z,41.20
2018-04-07T09:17:17.679Z,39.80
2018-04-07T09:18:20.961Z,39.50
2018-04-07T09:19:24.259Z,39.50
2018-04-07T09:20:26.780Z,39.40
2018-04-07T09:21:29.337Z,37.40
2018-04-07T09:22:31.867Z,38.60
2018-04-07T09:23:34.389Z,37.90
2018-04-07T09:24:36.917Z,37.80
2018-04-07T09:25:39.438Z,37.10
2018-04-07T09:26:42.760Z,37.40
2018-04-07T09:27:45.281Z,37.00
2018-04-07T09:28:47.810Z,37.20
2018-04-07T09:29:50.365Z,35.70
2018-04-07T09:32:28.619Z,35.80
2018-04-07T09:33:31.137Z,35.00
2018-04-07T09:34:33.697Z,34.70
2018-04-07T09:35:36.233Z,33.10
2018-04-07T09:36:39.525Z,32.90
2018-04-07T09:37:42.811Z,32.90
2018-04-07T09:38:46.134Z,33.00
2018-04-07T09:39:48.688Z,33.00
2018-04-07T09:40:51.204Z,32.00
2018-04-07T09:41:53.717Z,30.40
2018-04-07T09:42:56.256Z,31.40
2018-04-07T09:43:59.543Z,32.60
2018-04-07T09:45:02.874Z,31.40
2018-04-07T09:46:05.393Z,31.40
2018-04-07T09:47:08.726Z,31.10
2018-04-07T09:48:11.244Z,31.10
2018-04-07T09:49:14.531Z,31.60
2018-04-07T09:50:17.097Z,31.70
2018-04-07T09:51:19.614Z,31.20
2018-04-07T09:52:22.130Z,31.90
2018-04-07T09:53:24.688Z,32.30
2018-04-07T09:54:28.009Z,35.40
2018-04-07T09:55:30.531Z,35.30
2018-04-07T09:56:33.813Z,30.30
2018-04-07T09:57:37.104Z,31.00
2018-04-07T09:58:40.385Z,31.10
2018-04-07T09:59:43.738Z,30.50
2018-04-07T10:00:47.189Z,30.40
2018-04-07T10:01:49.712Z,31.40
2018-04-07T10:02:58.045Z,31.70
2018-04-07T10:04:00.564Z,30.30
2018-04-07T10:05:03.120Z,29.90
2018-04-07T10:06:05.645Z,29.40
2018-04-07T10:07:08.174Z,29.40
2018-04-07T10:08:10.707Z,29.80
2018-04-07T10:09:13.237Z,30.00
2018-04-07T10:10:15.804Z,30.30
2018-04-07T10:11:18.327Z,30.00
2018-04-07T10:12:20.846Z,29.40
2018-04-07T10:13:23.371Z,30.30
2018-04-07T10:14:25.893Z,30.20
2018-04-07T10:15:28.478Z,29.80
2018-04-07T10:16:31.015Z,29.70
2018-04-07T10:17:33.542Z,30.90
2018-04-07T10:18:36.056Z,31.20
2018-04-07T10:19:38.573Z,31.30
2018-04-07T10:20:41.126Z,30.50
2018-04-07T10:21:43.648Z,31.20
2018-04-07T10:22:46.174Z,30.40
2018-04-07T10:23:49.460Z,31.80
2018-04-07T10:24:52.794Z,32.20
2018-04-07T10:25:55.317Z,31.50
2018-04-07T10:26:58.602Z,32.00
2018-04-07T10:28:01.885Z,33.90
2018-04-07T10:29:05.170Z,33.00
2018-04-07T10:30:08.501Z,33.00
2018-04-07T10:31:11.021Z,33.00
2018-04-07T10:32:14.313Z,33.20
2018-04-07T10:33:17.639Z,34.00
2018-04-07T10:34:20.162Z,34.00
2018-04-07T10:35:23.445Z,34.40
2018-04-07T10:36:26.730Z,35.90
2018-04-07T10:37:30.014Z,35.00
2018-04-07T10:38:33.329Z,35.60
2018-04-07T10:39:35.887Z,35.60
2018-04-07T10:40:38.410Z,34.60
2018-04-07T10:41:40.927Z,35.40
2018-04-07T10:42:43.470Z,35.00
2018-04-07T10:43:45.986Z,34.70
2018-04-07T10:44:49.264Z,35.90
2018-04-07T10:45:51.821Z,36.10
2018-04-07T10:46:54.366Z,35.60
2018-04-07T10:47:56.909Z,36.10
2018-04-07T10:49:00.189Z,35.40
2018-04-07T10:50:03.471Z,35.30
2018-04-07T10:51:06.785Z,35.60
2018-04-07T10:52:09.305Z,35.40
2018-04-07T10:53:11.834Z,36.20
2018-04-07T10:54:14.380Z,36.40
2018-04-07T10:55:16.912Z,35.80
2018-04-07T10:56:20.204Z,35.80
2018-04-07T10:57:23.532Z,35.40
2018-04-07T10:58:26.050Z,35.50
2018-04-07T10:59:29.334Z,35.30
2018-04-07T11:00:32.646Z,36.10
2018-04-07T11:01:35.165Z,35.50
2018-04-07T11:02:37.689Z,35.20
2018-04-07T11:03:40.206Z,35.40
2018-04-07T11:04:42.765Z,34.70
2018-04-07T11:05:45.326Z,34.30
2018-04-07T11:06:47.850Z,35.60
2018-04-07T11:07:50.364Z,35.00
2018-04-07T11:08:52.890Z,34.70
2018-04-07T11:09:55.425Z,34.10
2018-04-07T11:10:57.972Z,34.60
2018-04-07T11:12:01.258Z,35.60
2018-04-07T11:13:04.536Z,35.80
2018-04-07T11:14:07.060Z,35.90
2018-04-07T11:15:09.629Z,36.30
2018-04-07T11:16:12.166Z,34.40
2018-04-07T11:17:14.691Z,34.00
2018-04-07T11:18:17.228Z,34.20
2018-04-07T11:19:19.809Z,34.10
2018-04-07T11:20:22.327Z,34.40
2018-04-07T11:21:24.842Z,34.20
2018-04-07T11:22:28.169Z,35.90
2018-04-07T11:23:30.691Z,36.00
2018-04-07T11:24:33.226Z,34.90
2018-04-07T11:25:35.787Z,34.00
2018-04-07T11:26:38.300Z,33.60
2018-04-07T11:27:40.876Z,34.00
2018-04-07T11:28:43.409Z,35.00
2018-04-07T11:29:45.943Z,35.20
2018-04-07T11:30:48.461Z,34.80
2018-04-07T11:31:50.991Z,36.60
2018-04-07T11:32:53.559Z,35.70
2018-04-07T11:33:56.086Z,35.30
2018-04-07T11:34:59.402Z,35.30
2018-04-07T11:36:01.929Z,35.30
2018-04-07T11:37:05.216Z,36.70
2018-04-07T11:38:08.553Z,36.80
2018-04-07T11:39:11.091Z,36.80
2018-04-07T11:40:13.632Z,34.70
2018-04-07T11:41:16.932Z,34.60
2018-04-07T11:42:19.460Z,34.60
2018-04-07T11:43:22.023Z,35.90
2018-04-07T11:44:24.554Z,35.50
2018-04-07T11:45:27.085Z,35.40
2018-04-07T11:46:30.425Z,35.10
2018-04-07T11:47:32.961Z,35.10
2018-04-07T11:48:35.493Z,35.50
2018-04-07T11:49:38.825Z,34.80
2018-04-07T11:50:41.354Z,34.70
2018-04-07T11:51:44.650Z,34.40
2018-04-07T11:52:47.177Z,34.30
2018-04-07T11:53:49.812Z,33.20
2018-04-07T11:54:52.384Z,33.70
2018-04-07T11:55:54.919Z,34.10
2018-04-07T11:56:57.449Z,35.30
2018-04-07T11:58:00.018Z,34.00
2018-04-07T11:59:02.540Z,33.90
2018-04-07T12:00:05.087Z,33.40
2018-04-07T12:01:07.616Z,34.80
2018-04-07T12:02:10.145Z,33.60
2018-04-07T12:03:12.704Z,33.80
2018-04-07T12:04:15.221Z,34.60
2018-04-07T12:05:18.535Z,33.90
2018-04-07T12:06:21.107Z,33.10
2018-04-07T12:07:23.627Z,32.80
2018-04-07T12:08:26.162Z,33.70
2018-04-07T12:09:28.706Z,34.00
2018-04-07T12:10:31.239Z,33.60
2018-04-07T12:11:34.629Z,33.80
2018-04-07T12:12:37.133Z,33.60
2018-04-07T12:13:39.665Z,32.70
2018-04-07T12:14:42.969Z,33.90
2018-04-07T12:15:45.515Z,34.00
2018-04-07T12:16:48.834Z,33.50
2018-04-07T12:17:51.354Z,33.30
2018-04-07T12:18:53.937Z,34.90
2018-04-07T12:19:56.422Z,34.50
2018-04-07T12:20:58.976Z,34.60
2018-04-07T12:22:01.539Z,33.60
2018-04-07T12:23:04.832Z,34.20
2018-04-07T12:24:07.367Z,34.10
2018-04-07T12:25:09.890Z,33.70
2018-04-07T12:26:12.421Z,35.00
2018-04-07T12:27:15.751Z,33.60
2018-04-07T12:28:18.281Z,33.60
2018-04-07T12:29:20.808Z,34.10
2018-04-07T12:30:23.386Z,34.20
2018-04-07T12:31:26.681Z,34.20
2018-04-07T12:32:29.970Z,32.90
2018-04-07T12:33:33.393Z,33.40
2018-04-07T12:34:35.915Z,33.30
2018-04-07T12:35:39.206Z,32.90
2018-04-07T12:36:42.515Z,33.30
2018-04-07T12:37:45.050Z,33.30
2018-04-07T12:38:48.385Z,32.90
2018-04-07T12:39:50.944Z,32.90
2018-04-07T12:40:53.470Z,32.70
2018-04-07T12:41:56.774Z,32.60
2018-04-07T12:42:59.297Z,32.70
2018-04-07T12:44:01.858Z,31.90
2018-04-07T12:45:04.408Z,31.30
2018-04-07T12:46:06.922Z,32.20
2018-04-07T12:47:10.246Z,30.90
2018-04-07T12:48:12.773Z,30.90
2018-04-07T12:49:16.062Z,30.10
2018-04-07T12:50:19.360Z,29.90
2018-04-07T12:51:21.936Z,29.90
2018-04-07T12:52:24.587Z,31.20
2018-04-07T12:53:27.110Z,29.70
2018-04-07T12:54:29.630Z,30.00
2018-04-07T12:55:32.144Z,30.60
2018-04-07T12:56:34.674Z,29.30
2018-04-07T12:57:37.233Z,29.00
2018-04-07T12:58:39.759Z,29.70
2018-04-07T12:59:42.277Z,29.10
2018-04-07T13:00:44.803Z,30.00
2018-04-07T13:01:47.342Z,29.50
2018-04-07T13:02:49.890Z,29.70
2018-04-07T13:03:52.433Z,29.30
2018-04-07T13:04:54.966Z,32.70
2018-04-07T13:05:58.294Z,31.10
2018-04-07T13:07:00.867Z,31.10
2018-04-07T13:08:03.366Z,31.80
2018-04-07T13:09:06.677Z,29.60
2018-04-07T13:10:09.233Z,29.70
2018-04-07T13:11:12.514Z,28.40
2018-04-07T13:12:15.836Z,28.70
2018-04-07T13:13:18.386Z,28.60
2018-04-07T13:14:20.910Z,28.20
2018-04-07T13:15:23.466Z,29.10
2018-04-07T13:16:26.019Z,29.00
2018-04-07T13:17:28.528Z,29.50
2018-04-07T13:18:31.830Z,28.30
2018-04-07T13:19:34.363Z,28.30
2018-04-07T13:20:36.920Z,28.60
2018-04-07T13:21:39.451Z,28.50
2018-04-07T13:22:41.987Z,29.10
2018-04-07T13:23:45.278Z,29.10
2018-04-07T13:24:47.804Z,29.10
2018-04-07T13:25:50.372Z,30.00
2018-04-07T13:26:52.897Z,29.20
2018-04-07T13:27:55.408Z,29.60
2018-04-07T13:28:57.932Z,29.20
2018-04-07T13:30:00.460Z,28.20
2018-04-07T13:31:03.783Z,29.30
2018-04-07T13:32:06.302Z,29.30
2018-04-07T13:33:09.608Z,30.10